createdAt,value
2022-10-23T00:00:31.533Z,17.3
2022-10-23T00:02:31.178Z,17.5
2022-10-23T00:04:30.808Z,18.5
2022-10-23T00:06:33.886Z,18.8
2022-10-23T00:08:33.562Z,18.7
2022-10-23T00:10:33.254Z,17.9
2022-10-23T00:12:32.932Z,16.7
2022-10-23T00:14:32.643Z,15.4
2022-10-23T00:16:32.327Z,16.1
2022-10-23T00:18:32.000Z,18.2
2022-10-23T00:20:35.111Z,18.8
2022-10-23T00:22:34.794Z,17.9
2022-10-23T00:24:34.478Z,15.6
2022-10-23T00:25:36.004Z,17.7
2022-10-23T00:27:35.723Z,16.7
2022-10-23T00:29:35.390Z,18.3
2022-10-23T00:31:35.068Z,16.9
2022-10-23T00:33:38.166Z,19.8
2022-10-23T00:35:37.846Z,19.4
2022-10-23T00:37:37.547Z,19.9
2022-10-23T00:41:36.902Z,17.1
2022-10-23T00:45:36.299Z,17.2
2022-10-23T00:53:38.456Z,17.7
2022-10-23T00:55:38.163Z,15.8
2022-10-23T00:57:37.852Z,16.2
2022-10-23T00:59:39.112Z,15.7
2022-10-23T01:01:42.303Z,17.3
2022-10-23T01:03:41.896Z,15.7
2022-10-23T01:05:41.611Z,16
2022-10-23T01:07:41.649Z,16.6
2022-10-23T01:09:40.957Z,16.8
2022-10-23T01:11:40.672Z,16.4
2022-10-23T01:13:40.361Z,15.8
2022-10-23T01:15:43.469Z,17
2022-10-23T01:17:44.605Z,16.1
2022-10-23T01:19:42.914Z,15.1
2022-10-23T01:22:44.301Z,17
2022-10-23T01:24:43.800Z,15.1
2022-10-23T01:26:43.502Z,14
2022-10-23T01:28:46.644Z,15
2022-10-23T01:30:46.352Z,14.7
2022-10-23T01:32:46.017Z,15.4
2022-10-23T01:34:45.719Z,12.7
2022-10-23T01:36:45.410Z,15
2022-10-23T01:38:45.157Z,14.6
2022-10-23T01:42:47.961Z,15.3
2022-10-23T01:44:47.655Z,14.8
2022-10-23T01:46:47.382Z,16.3
2022-10-23T01:50:46.774Z,14.4
2022-10-23T01:52:46.667Z,15.7
2022-10-23T01:54:46.175Z,14.7
2022-10-23T01:56:49.295Z,17.4
2022-10-23T01:58:49.003Z,16.7
2022-10-23T02:00:48.708Z,15.5
2022-10-23T02:02:48.477Z,15.5
2022-10-23T02:04:48.155Z,14.6
2022-10-23T02:06:47.935Z,14.4
2022-10-23T02:08:47.656Z,16
2022-10-23T02:10:50.751Z,16.1
2022-10-23T02:12:50.488Z,16.5
2022-10-23T02:14:50.188Z,15.2
2022-10-23T02:17:05.725Z,19.1
2022-10-23T02:19:05.459Z,17.3
2022-10-23T02:21:05.133Z,16.3
2022-10-23T02:23:08.254Z,18.5
2022-10-23T02:25:07.949Z,16.2
2022-10-23T02:29:07.342Z,16.3
2022-10-23T02:31:07.069Z,15.6
2022-10-23T02:33:06.779Z,16.3
2022-10-23T02:35:06.488Z,16.1
2022-10-23T02:37:09.682Z,19.4
2022-10-23T02:39:09.320Z,15.8
2022-10-23T02:41:09.001Z,16.1
2022-10-23T02:43:08.723Z,15.6
2022-10-23T02:45:08.422Z,17
2022-10-23T02:47:08.144Z,15.2
2022-10-23T02:49:07.840Z,13.3
2022-10-23T02:51:10.986Z,14.2
2022-10-23T02:53:10.651Z,17.8
2022-10-23T02:57:10.111Z,13.5
2022-10-23T02:59:09.823Z,14.7
2022-10-23T03:01:09.592Z,14.2
2022-10-23T03:03:09.255Z,13.9
2022-10-23T03:05:12.364Z,15.8
2022-10-23T03:07:12.192Z,14.6
2022-10-23T03:09:11.884Z,14.2
2022-10-23T03:10:13.433Z,16.2
2022-10-23T03:12:13.147Z,13.9
2022-10-23T03:14:12.835Z,15.1
2022-10-23T03:16:12.557Z,14.9
2022-10-23T03:18:15.670Z,16.1
2022-10-23T03:20:15.409Z,15.8
2022-10-23T03:22:15.174Z,15.1
2022-10-23T03:24:14.856Z,14.7
2022-10-23T03:26:14.573Z,15
2022-10-23T03:28:14.325Z,14.5
2022-10-23T03:30:14.174Z,16.8
2022-10-23T03:32:17.249Z,16.8
2022-10-23T03:34:16.988Z,16.9
2022-10-23T03:36:16.716Z,17
2022-10-23T03:38:16.519Z,16.1
2022-10-23T03:40:16.244Z,15.8
2022-10-23T03:42:16.052Z,15.5
2022-10-23T03:44:15.760Z,14.9
2022-10-23T03:46:18.988Z,18.9
2022-10-23T03:48:18.705Z,16.6
2022-10-23T03:50:18.444Z,15.2
2022-10-23T03:52:18.277Z,14.3
2022-10-23T03:54:17.976Z,15.5
2022-10-23T03:56:17.685Z,14.8
2022-10-23T03:58:17.395Z,13.8
2022-10-23T04:00:20.655Z,17
2022-10-23T04:02:20.411Z,16
2022-10-23T04:04:20.070Z,14.8
2022-10-23T04:07:21.365Z,16.5
2022-10-23T04:21:22.953Z,14.9
2022-10-23T04:27:25.710Z,17.2
2022-10-23T04:29:25.437Z,14.8
2022-10-23T04:31:25.130Z,14.7
2022-10-23T04:35:24.556Z,15.4
2022-10-23T04:37:24.284Z,13.6
2022-10-23T04:39:24.014Z,13.3
2022-10-23T04:41:27.241Z,14.5
2022-10-23T04:43:26.937Z,14.1
2022-10-23T04:45:26.637Z,13.8
2022-10-23T04:47:26.362Z,12.4
2022-10-23T04:49:26.159Z,13.5
2022-10-23T04:51:25.885Z,14.7
2022-10-23T04:53:25.591Z,12.9
2022-10-23T04:55:28.732Z,13.7
2022-10-23T04:57:28.416Z,14.7
2022-10-23T04:59:28.153Z,15.1
2022-10-23T05:00:29.763Z,13.4
2022-10-23T05:02:29.554Z,14.1
2022-10-23T05:04:29.357Z,12.4
2022-10-23T05:06:29.073Z,13.5
2022-10-23T05:08:32.206Z,13.8
2022-10-23T05:10:32.036Z,12.7
2022-10-23T05:12:31.836Z,12.2
2022-10-23T05:14:31.649Z,11
2022-10-23T05:16:31.326Z,12.4
2022-10-23T05:18:31.073Z,11.8
2022-10-23T05:20:30.770Z,11.8
2022-10-23T05:22:33.892Z,13.3
2022-10-23T05:24:33.624Z,12.8
2022-10-23T05:26:33.287Z,11.9
2022-10-23T05:28:33.001Z,12.9
2022-10-23T05:32:32.543Z,11.1
2022-10-23T05:36:35.578Z,12.7
2022-10-23T05:38:35.310Z,13.8
2022-10-23T05:42:37.129Z,11.9
2022-10-23T05:44:34.462Z,12.8
2022-10-23T05:46:34.185Z,11.8
2022-10-23T05:50:37.133Z,14.4
2022-10-23T05:52:36.829Z,13.4
2022-10-23T05:56:58.629Z,14.1
2022-10-23T05:58:58.334Z,12.7
2022-10-23T06:00:58.168Z,13.5
2022-10-23T06:03:01.177Z,14.6
2022-10-23T06:05:00.904Z,14
2022-10-23T06:07:00.615Z,14.3
2022-10-23T06:09:00.326Z,16.7
2022-10-23T06:11:00.017Z,13.3
2022-10-23T06:21:01.960Z,13.8
2022-10-23T06:23:01.657Z,15.4
2022-10-23T06:25:01.345Z,14.3
2022-10-23T06:27:01.058Z,14.8
2022-10-23T06:29:00.756Z,15.1
2022-10-23T06:31:03.867Z,15.1
2022-10-23T06:33:05.927Z,15.8
2022-10-23T06:37:02.978Z,15.3
2022-10-23T06:39:02.679Z,12.4
2022-10-23T06:41:02.373Z,14.3
2022-10-23T06:43:02.066Z,15
2022-10-23T06:45:07.411Z,17.1
2022-10-23T06:47:06.487Z,15.1
2022-10-23T06:49:06.113Z,15.5
2022-10-23T06:50:11.685Z,16.4
2022-10-23T06:52:14.229Z,15.8
2022-10-23T06:54:07.071Z,15
2022-10-23T06:56:06.752Z,15.3
2022-10-23T06:58:09.848Z,17.9
2022-10-23T07:04:08.939Z,19.1
2022-10-23T07:06:08.583Z,19.3
2022-10-23T07:10:07.996Z,17.8
2022-10-23T07:12:11.025Z,19.6
2022-10-23T07:14:10.691Z,19.4
2022-10-23T07:16:10.387Z,17.4
2022-10-23T07:18:10.063Z,19.1
2022-10-23T07:20:09.781Z,18.1
2022-10-23T07:22:11.962Z,17.8
2022-10-23T07:24:09.095Z,16
2022-10-23T07:26:12.203Z,19.5
2022-10-23T07:28:11.853Z,18.5
2022-10-23T07:30:11.513Z,17
2022-10-23T07:32:11.171Z,19.2
2022-10-23T07:34:10.844Z,19
2022-10-23T07:36:10.508Z,18.2
2022-10-23T07:38:10.163Z,20.2
2022-10-23T07:40:13.452Z,19.7
2022-10-23T07:42:12.899Z,20.1
2022-10-23T07:44:12.553Z,18.8
2022-10-23T07:45:14.117Z,21.4
2022-10-23T07:47:13.752Z,18.9
2022-10-23T07:49:13.408Z,18.3
2022-10-23T07:51:13.032Z,18.8
2022-10-23T07:53:16.112Z,20.3
2022-10-23T07:55:15.769Z,18.2
2022-10-23T07:57:15.433Z,20.2
2022-10-23T07:59:15.080Z,17.2
2022-10-23T08:01:14.789Z,16.9
2022-10-23T08:03:14.380Z,18.3
2022-10-23T08:05:14.045Z,16.4
2022-10-23T08:07:17.113Z,19.7
2022-10-23T08:09:16.762Z,18.3
2022-10-23T08:11:16.407Z,18.2
2022-10-23T08:13:16.059Z,18
2022-10-23T08:15:15.715Z,18.2
2022-10-23T08:17:15.348Z,17.2
2022-10-23T08:19:14.995Z,18
2022-10-23T08:21:18.042Z,20.1
2022-10-23T08:23:17.674Z,16.7
2022-10-23T08:25:19.827Z,15.3
2022-10-23T08:27:16.953Z,14.7
2022-10-23T08:29:16.565Z,16.4
2022-10-23T08:31:16.230Z,16
2022-10-23T08:33:15.865Z,14.2
2022-10-23T08:35:18.936Z,16.3
2022-10-23T08:37:18.520Z,15.9
2022-10-23T08:39:18.182Z,14.4
2022-10-23T08:42:19.311Z,15
2022-10-23T08:46:18.604Z,18.4
2022-10-23T08:50:21.311Z,16.8
2022-10-23T08:52:20.845Z,14.4
2022-10-23T08:54:20.484Z,15.9
2022-10-23T08:56:20.123Z,13.1
2022-10-23T08:58:19.725Z,14.8
2022-10-23T09:00:19.361Z,13.8
2022-10-23T09:02:22.534Z,14.6
2022-10-23T09:04:22.014Z,14.7
2022-10-23T09:06:21.632Z,13.2
2022-10-23T09:08:21.246Z,11.9
2022-10-23T09:10:20.995Z,13.4
2022-10-23T09:12:20.479Z,11.6
2022-10-23T09:14:20.102Z,12.7
2022-10-23T09:16:23.135Z,13.3
2022-10-23T09:18:22.683Z,11.2
2022-10-23T09:22:21.941Z,11.2
2022-10-23T09:24:21.527Z,10.6
2022-10-23T09:26:21.147Z,11.2
2022-10-23T09:32:23.338Z,10.1
2022-10-23T09:36:44.620Z,9.6
2022-10-23T09:38:44.139Z,8.3
2022-10-23T09:40:43.743Z,7.7
2022-10-23T09:42:46.743Z,7.4
2022-10-23T09:44:46.324Z,7.4
2022-10-23T09:46:45.949Z,7.4
2022-10-23T09:48:45.498Z,6.7
2022-10-23T09:50:45.084Z,6.6
2022-10-23T09:52:44.670Z,6.1
2022-10-23T09:54:44.247Z,6.6
2022-10-23T09:58:46.819Z,5.3
2022-10-23T10:00:46.430Z,5.1
2022-10-23T10:02:45.981Z,4.7
2022-10-23T10:04:45.553Z,4.2
2022-10-23T10:06:45.125Z,4.8
2022-10-23T10:10:47.682Z,3.8
2022-10-23T10:12:47.296Z,5.1
2022-10-23T10:14:46.864Z,4.7
2022-10-23T10:16:46.468Z,4.4
2022-10-23T10:18:46.063Z,4.5
2022-10-23T10:20:45.604Z,4.6
2022-10-23T10:22:46.183Z,5.3
2022-10-23T10:24:48.158Z,5.2
2022-10-23T10:26:47.749Z,5
2022-10-23T10:28:47.319Z,4.3
2022-10-23T10:29:48.822Z,4.4
2022-10-23T10:31:50.758Z,4.6
2022-10-23T10:33:47.952Z,5.3
2022-10-23T10:35:47.539Z,4.5
2022-10-23T10:37:50.710Z,4.7
2022-10-23T10:39:50.097Z,4.1
2022-10-23T10:43:49.242Z,4.3
2022-10-23T10:45:48.804Z,4
2022-10-23T10:47:48.391Z,3.4
2022-10-23T10:49:48.124Z,4.7
2022-10-23T10:51:50.934Z,5.1
2022-10-23T10:53:50.487Z,4.4
2022-10-23T10:55:50.040Z,4.7
2022-10-23T10:57:49.591Z,4.1
2022-10-23T10:59:49.145Z,3.5
2022-10-23T11:01:48.920Z,4.2
2022-10-23T11:03:48.249Z,3.7
2022-10-23T11:05:51.251Z,4.4
2022-10-23T11:07:50.774Z,4.1
2022-10-23T11:09:50.328Z,4
2022-10-23T11:11:49.857Z,4.3
2022-10-23T11:13:49.405Z,3.9
2022-10-23T11:15:48.987Z,3.9
2022-10-23T11:17:48.517Z,4.2
2022-10-23T11:19:51.459Z,4.5
2022-10-23T11:21:51.003Z,4.1
2022-10-23T11:23:50.538Z,4.5
2022-10-23T11:38:52.185Z,3.8
2022-10-23T11:42:51.236Z,3.8
2022-10-23T11:44:50.763Z,4
2022-10-23T11:46:53.710Z,3.4
2022-10-23T11:48:53.213Z,3.5
2022-10-23T11:50:52.745Z,3
2022-10-23T11:53:09.278Z,4.8
2022-10-23T11:54:51.790Z,4.4
2022-10-23T11:56:51.317Z,4.7
2022-10-23T11:58:50.797Z,3.6
2022-10-23T12:00:53.734Z,3.8
2022-10-23T12:06:52.299Z,3.7
2022-10-23T12:08:51.777Z,4
2022-10-23T12:10:51.278Z,3.7
2022-10-23T12:12:50.782Z,3.5
2022-10-23T12:14:53.706Z,3.1
2022-10-23T12:16:53.198Z,2.8
2022-10-23T12:18:52.681Z,3
2022-10-23T12:21:53.638Z,3.4
2022-10-23T12:23:53.117Z,3.2
2022-10-23T12:25:52.610Z,2.9
2022-10-23T12:27:57.077Z,2.9
2022-10-23T12:29:56.504Z,2.9
2022-10-23T12:31:55.982Z,4
2022-10-23T12:33:55.455Z,3
2022-10-23T12:35:54.939Z,3
2022-10-23T12:37:54.392Z,3.5
2022-10-23T12:39:53.882Z,2.8
2022-10-23T12:41:56.773Z,3.8
2022-10-23T12:43:56.221Z,3.1
2022-10-23T12:45:55.683Z,3.8
2022-10-23T12:47:55.123Z,2.8
2022-10-23T12:49:54.604Z,3
2022-10-23T12:51:54.031Z,3.1
2022-10-23T12:53:53.504Z,2.9
2022-10-23T12:55:56.462Z,3.1
2022-10-23T12:57:55.828Z,3.3
2022-10-23T13:01:54.882Z,3.3
2022-10-23T13:03:54.198Z,3.1
2022-10-23T13:05:53.601Z,2.6
2022-10-23T13:07:53.050Z,2.9
2022-10-23T13:09:55.854Z,3.3
2022-10-23T13:16:15.786Z,2.8
2022-10-23T13:22:17.442Z,2.8
2022-10-23T13:24:16.892Z,2.4
2022-10-23T13:26:16.358Z,2.9
2022-10-23T13:28:15.809Z,2.7
2022-10-23T13:32:14.570Z,2.9
2022-10-23T13:34:14.047Z,2.5
2022-10-23T13:36:16.782Z,2.3
2022-10-23T13:38:16.237Z,2.6
2022-10-23T13:40:15.602Z,3.6
2022-10-23T13:54:14.971Z,3.1
2022-10-23T13:56:14.347Z,2.8
2022-10-23T13:58:13.764Z,2.7
2022-10-23T14:00:13.211Z,2.5
2022-10-23T14:02:12.652Z,3.1
2022-10-23T14:08:14.195Z,2.7
2022-10-23T14:09:15.637Z,2.8
2022-10-23T14:13:14.508Z,2.5
2022-10-23T14:15:14.085Z,2.9
2022-10-23T14:17:16.719Z,2.7
2022-10-23T14:19:16.157Z,2.8
2022-10-23T14:21:15.590Z,2.2
2022-10-23T14:23:14.941Z,2.4
2022-10-23T14:25:14.376Z,3
2022-10-23T14:29:21.378Z,2.9
2022-10-23T14:31:15.887Z,3.5
2022-10-23T14:33:16.163Z,2.8
2022-10-23T14:35:15.573Z,2.8
2022-10-23T14:37:15.001Z,2.9
2022-10-23T14:39:14.346Z,3.1
2022-10-23T14:41:13.804Z,3.5
2022-10-23T14:43:13.239Z,3.2
2022-10-23T14:45:16.026Z,2.7
2022-10-23T14:47:15.446Z,2.6
2022-10-23T14:49:14.879Z,2.8
2022-10-23T14:51:14.214Z,2.7
2022-10-23T14:53:13.651Z,2.6
2022-10-23T14:55:13.090Z,3.6
2022-10-23T14:57:12.523Z,2.4
2022-10-23T14:59:15.426Z,2.6
2022-10-23T15:01:15.018Z,3.6
2022-10-23T15:03:14.175Z,3.3
2022-10-23T15:06:18.246Z,2.7
2022-10-23T15:08:14.413Z,2.3
2022-10-23T15:10:13.942Z,6.3
2022-10-23T15:12:16.591Z,2.6
2022-10-23T15:14:16.053Z,2.6
2022-10-23T15:16:15.508Z,2.3
2022-10-23T15:18:14.965Z,2.8
2022-10-23T15:20:14.408Z,2
2022-10-23T15:22:14.002Z,3.1
2022-10-23T15:24:13.326Z,2.5
2022-10-23T15:26:16.197Z,2.2
2022-10-23T15:28:15.692Z,2.6
2022-10-23T15:30:15.141Z,2.8
2022-10-23T15:32:14.592Z,2.7
2022-10-23T15:34:14.064Z,2.9
2022-10-23T15:46:14.243Z,3.5
2022-10-23T15:48:13.729Z,3.7
2022-10-23T15:52:12.687Z,3.1
2022-10-23T15:54:15.568Z,3.1
2022-10-23T15:56:15.032Z,3.4
2022-10-23T15:58:14.559Z,2.9
2022-10-23T15:59:16.003Z,3.2
2022-10-23T16:01:15.632Z,2.9
2022-10-23T16:07:17.415Z,3.6
2022-10-23T16:09:16.858Z,2.8
2022-10-23T16:13:15.888Z,3.2
2022-10-23T16:15:15.385Z,3.1
2022-10-23T16:21:17.344Z,2.9
2022-10-23T16:23:16.835Z,3
2022-10-23T16:25:16.333Z,3.1
2022-10-23T16:27:15.849Z,3.5
2022-10-23T16:29:15.366Z,3.8
2022-10-23T16:31:19.194Z,3.9
2022-10-23T16:33:14.401Z,3.8
2022-10-23T16:35:17.321Z,3.2
2022-10-23T16:37:16.846Z,3.3
2022-10-23T16:39:16.366Z,3
2022-10-23T16:41:15.884Z,3
2022-10-23T16:45:14.927Z,3.3
2022-10-23T16:47:14.451Z,3.3
2022-10-23T16:49:17.358Z,3.5
2022-10-23T16:51:16.856Z,2.9
2022-10-23T16:53:16.363Z,3.1
2022-10-23T16:55:31.361Z,3.1
2022-10-23T16:57:30.878Z,3.4
2022-10-23T16:59:30.338Z,3.3
2022-10-23T17:01:33.463Z,3.2
2022-10-23T17:03:32.767Z,3
2022-10-23T17:05:32.281Z,3.1
2022-10-23T17:07:31.756Z,3.1
2022-10-23T17:09:31.268Z,3.4
2022-10-23T17:11:30.750Z,3
2022-10-23T17:13:30.212Z,2.9
2022-10-23T17:15:33.154Z,2.9
2022-10-23T17:17:32.608Z,2.7
2022-10-23T17:19:44.543Z,3.3
2022-10-23T17:21:31.608Z,3.2
2022-10-23T17:23:31.061Z,2.9
2022-10-23T17:25:30.549Z,3.7
2022-10-23T17:27:30.040Z,2.9
2022-10-23T17:29:32.967Z,3.6
2022-10-23T17:33:31.965Z,3.5
2022-10-23T17:35:31.463Z,3.1
2022-10-23T17:37:30.950Z,3.8
2022-10-23T17:39:30.468Z,3.5
2022-10-23T17:41:29.992Z,4
2022-10-23T17:43:32.875Z,3.1
2022-10-23T17:45:32.382Z,3.6
2022-10-23T17:47:31.893Z,5.5
2022-10-23T17:48:33.356Z,3.6
2022-10-23T17:50:32.868Z,3
2022-10-23T17:56:34.809Z,4.6
2022-10-23T18:04:32.862Z,3.5
2022-10-23T18:08:31.904Z,3.2
2022-10-23T18:14:37.476Z,2.8
2022-10-23T18:16:34.922Z,4.1
2022-10-23T18:18:34.471Z,3.4
2022-10-23T18:20:33.995Z,3
2022-10-23T18:22:33.512Z,3.2
2022-10-23T18:24:36.433Z,3.2
2022-10-23T18:26:35.987Z,3.5
2022-10-23T18:28:35.510Z,3.3
2022-10-23T18:30:35.127Z,4
2022-10-23T18:32:34.585Z,3
2022-10-23T18:34:34.121Z,3
2022-10-23T18:36:34.022Z,3.6
2022-10-23T18:38:36.577Z,3.2
2022-10-23T18:40:36.125Z,3
2022-10-23T18:43:44.030Z,3.5
2022-10-23T18:45:36.656Z,3.4
2022-10-23T18:47:36.191Z,3.8
2022-10-23T18:49:35.719Z,3.5
2022-10-23T18:51:38.660Z,3.7
2022-10-23T18:53:38.222Z,3.6
2022-10-23T18:55:37.768Z,3.9
2022-10-23T18:57:37.253Z,3.4
2022-10-23T18:59:36.808Z,3.7
2022-10-23T19:01:36.585Z,3.4
2022-10-23T19:03:35.838Z,3
2022-10-23T19:05:38.797Z,4.5
2022-10-23T19:07:38.338Z,4.7
2022-10-23T19:09:37.867Z,3.6
2022-10-23T19:11:37.394Z,3.9
2022-10-23T19:13:38.917Z,3.7
2022-10-23T19:15:36.444Z,3.4
2022-10-23T19:17:35.983Z,2.7
2022-10-23T19:19:38.908Z,2.8
2022-10-23T19:21:38.462Z,3.6
2022-10-23T19:23:37.984Z,2.4
2022-10-23T19:25:37.490Z,3.2
2022-10-23T19:27:37.017Z,3.2
2022-10-23T19:29:36.554Z,3.1
2022-10-23T19:31:36.109Z,4
2022-10-23T19:37:38.259Z,3
2022-10-23T19:44:38.201Z,3.2
2022-10-23T19:46:41.135Z,4.3
2022-10-23T19:48:40.668Z,3
2022-10-23T19:50:40.190Z,4.5
2022-10-23T19:52:39.710Z,3.6
2022-10-23T19:54:39.223Z,3.2
2022-10-23T19:56:38.757Z,3.8
2022-10-23T19:58:38.248Z,2.8
2022-10-23T20:00:41.209Z,4.5
2022-10-23T20:02:40.720Z,2.9
2022-10-23T20:04:40.228Z,3.2
2022-10-23T20:06:39.739Z,3
2022-10-23T20:08:39.225Z,3.7
2022-10-23T20:10:38.774Z,2.8
2022-10-23T20:12:38.291Z,2.5
2022-10-23T20:14:41.236Z,2.4
2022-10-23T20:16:40.750Z,3.2
2022-10-23T20:18:40.256Z,3.6
2022-10-23T20:22:41.745Z,2.7
2022-10-23T20:24:38.825Z,3.4
2022-10-23T20:26:38.385Z,2.9
2022-10-23T20:28:41.336Z,3.1
2022-10-23T20:30:40.853Z,3.2
2022-10-23T20:32:40.397Z,4.6
2022-10-23T20:35:01.408Z,2.4
2022-10-23T20:37:00.964Z,3.9
2022-10-23T20:39:00.531Z,3.4
2022-10-23T20:41:03.431Z,2.8
2022-10-23T20:43:02.993Z,2.5
2022-10-23T20:45:03.723Z,2.8
2022-10-23T20:47:02.051Z,2.7
2022-10-23T20:49:01.605Z,4.6
2022-10-23T20:51:01.176Z,3.8
2022-10-23T20:53:00.669Z,2.9
2022-10-23T20:55:03.621Z,2.6
2022-10-23T20:57:03.178Z,8.3
2022-10-23T20:59:02.734Z,4.9
2022-10-23T21:01:02.341Z,2.4
2022-10-23T21:03:01.802Z,6.5
2022-10-23T21:05:01.393Z,2.9
2022-10-23T21:07:11.298Z,2.8
2022-10-23T21:09:03.915Z,2.4
2022-10-23T21:11:03.430Z,2.4
2022-10-23T21:13:02.970Z,2.3
2022-10-23T21:15:02.550Z,2.3
2022-10-23T21:17:02.112Z,3
2022-10-23T21:19:01.630Z,2.3
2022-10-23T21:21:01.182Z,2.3
2022-10-23T21:23:04.150Z,2.4
2022-10-23T21:25:03.728Z,1.3
2022-10-23T21:27:03.259Z,2
2022-10-23T21:32:03.845Z,2.1
2022-10-23T21:34:03.464Z,2.7
2022-10-23T21:36:13.671Z,1.5
2022-10-23T21:38:05.959Z,2.4
2022-10-23T21:40:05.512Z,2
2022-10-23T21:42:05.072Z,1.7
2022-10-23T21:44:04.645Z,2
2022-10-23T21:46:04.205Z,1.7
2022-10-23T21:48:03.755Z,1.4
2022-10-23T21:50:06.724Z,1.8
2022-10-23T21:52:06.297Z,1.9
2022-10-23T21:54:05.825Z,1.5
2022-10-23T21:56:05.413Z,2.1
2022-10-23T21:58:04.962Z,1.9
2022-10-23T22:00:04.549Z,1.6
2022-10-23T22:02:04.199Z,1.5
2022-10-23T22:04:07.062Z,1.9
2022-10-23T22:06:06.602Z,1.6
2022-10-23T22:08:06.128Z,2.1
2022-10-23T22:10:05.712Z,1.7
2022-10-23T22:12:05.268Z,1.6
2022-10-23T22:14:04.811Z,2.2
2022-10-23T22:16:04.349Z,2.2
2022-10-23T22:18:07.329Z,2.2
2022-10-23T22:20:06.887Z,1.7
2022-10-23T22:22:06.431Z,2.1
2022-10-23T22:25:07.456Z,1.5
2022-10-23T22:27:07.037Z,1.6
2022-10-23T22:29:06.564Z,1.7
2022-10-23T22:33:09.109Z,1.9
2022-10-23T22:35:08.685Z,1.8
2022-10-23T22:37:08.258Z,2.3
2022-10-23T22:39:07.821Z,1.4
2022-10-23T22:41:07.354Z,1.6
2022-10-23T22:43:06.919Z,2.8
2022-10-23T22:47:09.429Z,2.2
2022-10-23T22:49:09.075Z,2.4
2022-10-23T22:55:22.809Z,2.6
2022-10-23T22:57:07.206Z,2.3
2022-10-23T22:59:10.173Z,2.6
2022-10-23T23:01:09.849Z,2.3
2022-10-23T23:03:09.363Z,2.6
2022-10-23T23:05:08.880Z,2.4
2022-10-23T23:07:08.427Z,2.6
2022-10-23T23:09:07.998Z,2
2022-10-23T23:11:07.533Z,2.3
2022-10-23T23:13:10.505Z,2
2022-10-23T23:18:11.277Z,1.6
2022-10-23T23:22:10.315Z,1.8
2022-10-23T23:24:09.867Z,1.7
2022-10-23T23:26:12.799Z,2.5
2022-10-23T23:28:12.402Z,1.5
2022-10-23T23:30:11.958Z,1.6
2022-10-23T23:32:11.509Z,2
2022-10-23T23:34:11.059Z,1.5
2022-10-23T23:36:10.733Z,1.7
2022-10-23T23:38:10.197Z,2.6
2022-10-23T23:40:13.173Z,2.3
2022-10-23T23:42:12.738Z,2.3
2022-10-23T23:44:12.289Z,2.3
2022-10-23T23:46:11.867Z,2.4
2022-10-23T23:48:11.435Z,2.5
2022-10-23T23:52:10.578Z,2.2
2022-10-23T23:54:13.544Z,3.3
2022-10-23T23:56:13.116Z,3
